Social login voor leden:

1. METAR EBOS

METAR EBOS 270850Z 28012KT 9999 FEW032 17/11 Q1017 TEMPO SHRA

2. TAF EBOS

TAF EBOS 270850Z 28012KT 9999 FEW032 17/11 Q1017 TEMPO SHRA

3. NOTAMS EBOS

Klik hier voor een overzicht van de notams.

Deze pagina promoten

Noordzee Vliegclub - Nieuwpoortsesteenweg 947 8400 Oostende - Tel 059 30 04 79 - info@nzvc.be - 

 - Copyright 2020